createdAt,value
2017-03-20T00:00:58.513Z,50.30
2017-03-20T00:01:57.622Z,50.40
2017-03-20T00:02:56.553Z,50.30
2017-03-20T00:03:55.803Z,50.40
2017-03-20T00:04:55.083Z,50.40
2017-03-20T00:05:54.383Z,50.40
2017-03-20T00:06:53.354Z,50.30
2017-03-20T00:07:52.450Z,50.10
2017-03-20T00:08:51.454Z,50.30
2017-03-20T00:09:50.302Z,50.40
2017-03-20T00:10:49.573Z,50.20
2017-03-20T00:11:48.706Z,50.30
2017-03-20T00:12:47.575Z,50.40
2017-03-20T00:13:46.542Z,50.30
2017-03-20T00:14:45.503Z,50.20
2017-03-20T00:15:44.526Z,50.10
2017-03-20T00:16:43.773Z,50.10
2017-03-20T00:17:42.873Z,50.30
2017-03-20T00:18:41.554Z,50.30
2017-03-20T00:19:40.657Z,50.00
2017-03-20T00:20:39.559Z,50.80
2017-03-20T00:21:38.397Z,50.10
2017-03-20T00:22:37.362Z,50.10
2017-03-20T00:23:36.370Z,50.00
2017-03-20T00:24:35.662Z,50.80
2017-03-20T00:25:34.941Z,50.10
2017-03-20T00:26:34.071Z,50.00
2017-03-20T00:27:32.917Z,50.00
2017-03-20T00:28:31.895Z,50.00
2017-03-20T00:29:30.878Z,50.00
2017-03-20T00:30:29.841Z,50.00
2017-03-20T00:31:28.841Z,50.00
2017-03-20T00:32:28.080Z,50.00
2017-03-20T00:33:27.119Z,50.00
2017-03-20T00:34:26.093Z,49.90
2017-03-20T00:35:25.084Z,50.10
2017-03-20T00:36:23.869Z,50.10
2017-03-20T00:37:22.833Z,50.10
2017-03-20T00:38:22.005Z,50.10
2017-03-20T00:39:21.102Z,50.00
2017-03-20T00:40:19.895Z,50.20
2017-03-20T00:41:18.674Z,50.10
2017-03-20T00:42:17.652Z,50.20
2017-03-20T00:43:16.431Z,50.00
2017-03-20T00:44:15.438Z,50.10
2017-03-20T00:45:14.576Z,50.20
2017-03-20T00:46:13.584Z,50.20
2017-03-20T00:47:12.737Z,50.20
2017-03-20T00:48:11.836Z,50.10
2017-03-20T00:49:10.943Z,50.10
2017-03-20T00:50:09.864Z,50.10
2017-03-20T00:51:08.810Z,50.00
2017-03-20T00:52:07.890Z,50.20
2017-03-20T00:53:06.867Z,49.90
2017-03-20T00:54:05.834Z,50.10
2017-03-20T00:55:04.709Z,50.00
2017-03-20T00:56:03.833Z,50.10
2017-03-20T00:57:02.696Z,50.10
2017-03-20T00:58:01.474Z,49.90
2017-03-20T00:59:00.353Z,50.00
2017-03-20T00:59:59.654Z,50.00
2017-03-20T01:00:58.628Z,50.00
2017-03-20T01:01:58.001Z,50.00
2017-03-20T01:02:57.210Z,50.00
2017-03-20T01:03:56.199Z,50.10
2017-03-20T01:04:55.258Z,50.10
2017-03-20T01:05:54.429Z,50.00
2017-03-20T01:06:53.757Z,50.00
2017-03-20T01:07:53.086Z,50.10
2017-03-20T01:08:52.330Z,49.90
2017-03-20T01:09:51.314Z,50.00
2017-03-20T01:10:50.297Z,50.60
2017-03-20T01:11:48.844Z,50.00
2017-03-20T01:12:47.754Z,49.90
2017-03-20T01:13:46.973Z,50.00
2017-03-20T01:14:45.918Z,50.00
2017-03-20T01:15:45.220Z,50.00
2017-03-20T01:16:44.197Z,50.00
2017-03-20T01:17:43.184Z,49.80
2017-03-20T01:18:42.167Z,50.00
2017-03-20T01:19:41.189Z,49.80
2017-03-20T01:20:40.124Z,49.90
2017-03-20T01:21:39.191Z,49.80
2017-03-20T01:22:38.090Z,49.70
2017-03-20T01:23:36.622Z,49.80
2017-03-20T01:24:35.254Z,49.70
2017-03-20T01:25:34.247Z,49.80
2017-03-20T01:26:33.096Z,49.70
2017-03-20T01:27:32.083Z,49.70
2017-03-20T01:28:31.160Z,49.70
2017-03-20T01:29:29.841Z,49.70
2017-03-20T01:30:28.827Z,49.70
2017-03-20T01:31:27.838Z,49.60
2017-03-20T01:32:26.910Z,49.60
2017-03-20T01:33:25.770Z,49.60
2017-03-20T01:34:24.653Z,49.60
2017-03-20T01:35:23.634Z,49.50
2017-03-20T01:36:22.414Z,49.50
2017-03-20T01:37:21.337Z,49.60
2017-03-20T01:38:20.273Z,49.50
2017-03-20T01:39:19.052Z,49.50
2017-03-20T01:40:17.934Z,49.50
2017-03-20T01:41:17.217Z,49.60
2017-03-20T01:42:16.181Z,49.50
2017-03-20T01:43:15.530Z,49.50
2017-03-20T01:44:14.469Z,49.50
2017-03-20T01:45:13.453Z,49.60
2017-03-20T01:46:12.758Z,49.60
2017-03-20T01:47:12.037Z,49.60
2017-03-20T01:48:11.034Z,49.50
2017-03-20T01:49:10.037Z,49.60
2017-03-20T01:50:08.990Z,49.50
2017-03-20T01:51:07.977Z,49.50
2017-03-20T01:52:07.257Z,49.50
2017-03-20T01:53:06.547Z,49.40
2017-03-20T01:54:05.539Z,49.50
2017-03-20T01:55:04.557Z,49.50
2017-03-20T01:56:03.578Z,49.40
2017-03-20T01:57:02.482Z,49.60
2017-03-20T01:58:01.557Z,49.60
2017-03-20T01:59:00.545Z,49.50
2017-03-20T01:59:59.248Z,49.60
2017-03-20T02:00:58.445Z,49.60
2017-03-20T02:01:57.389Z,49.70
2017-03-20T02:02:56.186Z,49.60
2017-03-20T02:03:54.868Z,49.60
2017-03-20T02:04:54.039Z,49.50
2017-03-20T02:05:53.021Z,49.60
2017-03-20T02:06:52.197Z,49.60
2017-03-20T02:07:50.991Z,49.60
2017-03-20T02:08:49.970Z,49.60
2017-03-20T02:09:48.745Z,49.50
2017-03-20T02:10:47.702Z,49.50
2017-03-20T02:11:47.351Z,49.60
2017-03-20T02:12:46.490Z,49.60
2017-03-20T02:13:45.474Z,49.60
2017-03-20T02:14:44.473Z,49.50
2017-03-20T02:15:43.549Z,49.50
2017-03-20T02:16:42.758Z,49.50
2017-03-20T02:17:41.733Z,49.50
2017-03-20T02:18:40.845Z,49.40
2017-03-20T02:19:39.777Z,49.50
2017-03-20T02:20:38.952Z,49.50
2017-03-20T02:21:38.061Z,50.20
2017-03-20T02:22:36.956Z,49.60
2017-03-20T02:23:36.223Z,49.60
2017-03-20T02:24:35.353Z,49.50
2017-03-20T02:25:34.206Z,49.50
2017-03-20T02:26:33.494Z,49.50
2017-03-20T02:27:32.477Z,49.50
2017-03-20T02:28:31.741Z,49.50
2017-03-20T02:29:30.868Z,49.40
2017-03-20T02:30:29.870Z,49.40
2017-03-20T02:31:29.025Z,49.40
2017-03-20T02:32:27.985Z,49.40
2017-03-20T02:33:26.987Z,49.40
2017-03-20T02:34:26.085Z,49.40
2017-03-20T02:35:25.041Z,49.50
2017-03-20T02:36:24.195Z,49.40
2017-03-20T02:37:23.531Z,49.50
2017-03-20T02:38:22.515Z,49.40
2017-03-20T02:39:21.507Z,49.40
2017-03-20T02:40:20.790Z,49.30
2017-03-20T02:41:20.073Z,49.40
2017-03-20T02:42:19.192Z,49.30
2017-03-20T02:43:18.309Z,49.40
2017-03-20T02:44:17.618Z,49.40
2017-03-20T02:45:16.716Z,49.40
2017-03-20T02:46:15.703Z,49.40
2017-03-20T02:47:15.297Z,49.30
2017-03-20T02:48:14.318Z,49.30
2017-03-20T02:49:13.378Z,49.30
2017-03-20T02:50:12.262Z,49.20
2017-03-20T02:51:11.141Z,49.20
2017-03-20T02:52:10.421Z,49.40
2017-03-20T02:53:09.498Z,49.30
2017-03-20T02:54:08.226Z,49.20
2017-03-20T02:55:07.981Z,49.30
2017-03-20T02:56:06.974Z,49.40
2017-03-20T02:57:06.261Z,49.30
2017-03-20T02:58:05.550Z,49.30
2017-03-20T02:59:04.539Z,49.20
2017-03-20T03:00:03.858Z,49.30
2017-03-20T03:01:03.109Z,49.40
2017-03-20T03:02:02.090Z,49.30
2017-03-20T03:03:01.388Z,49.20
2017-03-20T03:04:00.778Z,49.30
2017-03-20T03:04:59.753Z,49.20
2017-03-20T03:05:58.473Z,49.10
2017-03-20T03:06:58.244Z,49.20
2017-03-20T03:07:57.222Z,49.20
2017-03-20T03:08:55.990Z,49.10
2017-03-20T03:09:54.878Z,49.20
2017-03-20T03:10:53.951Z,49.10
2017-03-20T03:11:52.974Z,49.10
2017-03-20T03:12:52.110Z,49.30
2017-03-20T03:13:51.115Z,49.20
2017-03-20T03:14:50.193Z,49.20
2017-03-20T03:15:49.074Z,49.20
2017-03-20T03:16:48.168Z,49.20
2017-03-20T03:17:47.078Z,49.10
2017-03-20T03:18:46.229Z,49.10
2017-03-20T03:19:45.316Z,49.10
2017-03-20T03:20:44.606Z,49.10
2017-03-20T03:21:43.906Z,49.20
2017-03-20T03:22:43.181Z,49.10
2017-03-20T03:23:42.262Z,49.10
2017-03-20T03:24:41.246Z,49.10
2017-03-20T03:25:40.437Z,49.10
2017-03-20T03:26:39.422Z,49.00
2017-03-20T03:27:38.402Z,49.10
2017-03-20T03:28:37.668Z,49.10
2017-03-20T03:29:36.810Z,49.10
2017-03-20T03:30:35.638Z,49.10
2017-03-20T03:31:34.729Z,49.00
2017-03-20T03:32:33.914Z,49.00
2017-03-20T03:33:32.918Z,49.00
2017-03-20T03:34:31.903Z,49.00
2017-03-20T03:35:31.021Z,48.90
2017-03-20T03:36:30.784Z,49.00
2017-03-20T03:37:29.861Z,49.00
2017-03-20T03:38:29.062Z,49.10
2017-03-20T03:39:28.042Z,49.00
2017-03-20T03:40:27.002Z,48.90
2017-03-20T03:41:25.985Z,49.10
2017-03-20T03:42:24.989Z,48.90
2017-03-20T03:43:23.769Z,49.00
2017-03-20T03:44:22.929Z,48.90
2017-03-20T03:45:22.033Z,49.10
2017-03-20T03:46:21.201Z,49.00
2017-03-20T03:47:20.342Z,48.90
2017-03-20T03:48:20.397Z,48.90
2017-03-20T03:49:19.712Z,48.90
2017-03-20T03:50:18.693Z,48.90
2017-03-20T03:51:17.821Z,48.80
2017-03-20T03:52:17.678Z,48.70
2017-03-20T03:53:16.702Z,48.70
2017-03-20T03:54:16.755Z,48.80
2017-03-20T03:55:15.757Z,48.90
2017-03-20T03:56:15.054Z,48.80
2017-03-20T03:57:14.034Z,48.80
2017-03-20T03:58:13.009Z,48.80
2017-03-20T03:59:12.026Z,48.70
2017-03-20T04:00:11.266Z,48.70
2017-03-20T04:01:10.571Z,48.70
2017-03-20T04:02:09.860Z,48.70
2017-03-20T04:03:08.842Z,48.80
2017-03-20T04:04:08.114Z,48.70
2017-03-20T04:05:07.261Z,48.70
2017-03-20T04:06:06.401Z,48.70
2017-03-20T04:07:05.694Z,48.70
2017-03-20T04:08:04.990Z,48.70
2017-03-20T04:09:04.287Z,48.70
2017-03-20T04:10:03.258Z,48.80
2017-03-20T04:11:02.490Z,48.70
2017-03-20T04:12:01.629Z,48.70
2017-03-20T04:13:00.313Z,48.70
2017-03-20T04:14:00.114Z,48.70
2017-03-20T04:14:59.190Z,48.60
2017-03-20T04:15:58.078Z,48.70
2017-03-20T04:16:57.344Z,48.70
2017-03-20T04:17:56.451Z,48.70
2017-03-20T04:18:55.607Z,48.60
2017-03-20T04:19:54.912Z,48.70
2017-03-20T04:20:54.218Z,48.60
2017-03-20T04:21:53.490Z,48.70
2017-03-20T04:22:52.533Z,48.70
2017-03-20T04:23:51.481Z,48.70
2017-03-20T04:24:50.461Z,48.70
2017-03-20T04:25:49.437Z,48.60
2017-03-20T04:26:48.731Z,49.30
2017-03-20T04:27:47.709Z,48.70
2017-03-20T04:28:46.725Z,48.70
2017-03-20T04:29:45.685Z,48.70
2017-03-20T04:30:44.966Z,48.60
2017-03-20T04:31:44.234Z,48.70
2017-03-20T04:32:43.855Z,48.60
2017-03-20T04:33:42.833Z,48.70
2017-03-20T04:34:42.109Z,48.60
2017-03-20T04:35:41.410Z,48.60
2017-03-20T04:36:40.706Z,48.60
2017-03-20T04:37:39.689Z,48.60
2017-03-20T04:38:38.979Z,48.70
2017-03-20T04:39:38.273Z,48.60
2017-03-20T04:40:37.281Z,48.50
2017-03-20T04:41:36.541Z,48.40
2017-03-20T04:42:35.833Z,48.40
2017-03-20T04:43:34.813Z,48.50
2017-03-20T04:44:34.084Z,48.50
2017-03-20T04:45:33.365Z,48.40
2017-03-20T04:46:32.209Z,48.50
2017-03-20T04:47:31.973Z,48.50
2017-03-20T04:48:31.050Z,48.40
2017-03-20T04:49:29.742Z,48.40
2017-03-20T04:50:28.922Z,48.40
2017-03-20T04:51:27.990Z,48.40
2017-03-20T04:52:27.014Z,48.40
2017-03-20T04:53:26.156Z,48.40
2017-03-20T04:54:25.249Z,48.40
2017-03-20T04:55:24.230Z,48.40
2017-03-20T04:56:22.938Z,48.40
2017-03-20T04:57:22.250Z,48.40
2017-03-20T04:58:22.147Z,48.40
2017-03-20T04:59:21.274Z,48.40
2017-03-20T05:00:20.281Z,48.40
2017-03-20T05:01:19.418Z,48.40
2017-03-20T05:02:19.166Z,48.30
2017-03-20T05:03:17.955Z,48.40
2017-03-20T05:04:16.962Z,48.40
2017-03-20T05:05:15.757Z,48.40
2017-03-20T05:06:14.593Z,48.30
2017-03-20T05:07:13.774Z,48.30
2017-03-20T05:08:13.045Z,48.40
2017-03-20T05:09:12.349Z,48.30
2017-03-20T05:10:11.370Z,48.30
2017-03-20T05:11:10.413Z,48.20
2017-03-20T05:12:09.307Z,48.20
2017-03-20T05:13:08.378Z,48.20
2017-03-20T05:14:07.266Z,48.20
2017-03-20T05:15:06.357Z,48.20
2017-03-20T05:16:05.274Z,48.20
2017-03-20T05:17:04.493Z,48.20
2017-03-20T05:18:03.510Z,48.20
2017-03-20T05:19:02.461Z,48.30
2017-03-20T05:20:01.466Z,48.20
2017-03-20T05:21:00.741Z,48.20
2017-03-20T05:21:59.875Z,47.70
2017-03-20T05:22:58.722Z,47.40
2017-03-20T05:23:58.298Z,47.20
2017-03-20T05:24:57.308Z,47.10
2017-03-20T05:25:56.265Z,47.10
2017-03-20T05:26:55.273Z,47.10
2017-03-20T05:27:54.297Z,47.20
2017-03-20T05:28:53.538Z,47.20
2017-03-20T05:29:52.524Z,47.20
2017-03-20T05:30:51.321Z,47.20
2017-03-20T05:31:50.189Z,47.20
2017-03-20T05:32:49.167Z,47.30
2017-03-20T05:33:48.194Z,47.30
2017-03-20T05:34:47.134Z,47.40
2017-03-20T05:35:46.121Z,47.40
2017-03-20T05:36:45.406Z,47.60
2017-03-20T05:37:44.389Z,47.80
2017-03-20T05:38:43.682Z,47.80
2017-03-20T05:39:42.708Z,47.90
2017-03-20T05:40:41.642Z,47.90
2017-03-20T05:41:40.933Z,48.00
2017-03-20T05:42:39.726Z,48.10
2017-03-20T05:43:38.596Z,48.20
2017-03-20T05:44:37.670Z,48.20
2017-03-20T05:45:36.597Z,48.20
2017-03-20T05:46:35.539Z,48.20
2017-03-20T05:47:34.546Z,48.30
2017-03-20T05:48:33.805Z,48.30
2017-03-20T05:49:32.790Z,48.30
2017-03-20T05:50:31.780Z,48.40
2017-03-20T05:51:30.798Z,48.30
2017-03-20T05:52:30.042Z,48.50
2017-03-20T05:53:29.038Z,48.50
2017-03-20T05:54:28.317Z,48.60
2017-03-20T05:55:27.310Z,48.60
2017-03-20T05:56:26.586Z,48.60
2017-03-20T05:57:25.610Z,48.60
2017-03-20T05:58:24.858Z,48.70
2017-03-20T05:59:24.150Z,48.80
2017-03-20T06:00:23.142Z,48.80
2017-03-20T06:01:22.122Z,48.80
2017-03-20T06:02:21.216Z,48.90
2017-03-20T06:03:20.250Z,48.80
2017-03-20T06:04:19.382Z,48.90
2017-03-20T06:05:18.357Z,49.10
2017-03-20T06:06:17.343Z,49.00
2017-03-20T06:07:16.742Z,49.00
2017-03-20T06:08:15.622Z,49.60
2017-03-20T06:09:14.628Z,50.00
2017-03-20T06:10:13.577Z,50.20
2017-03-20T06:11:12.351Z,50.00
2017-03-20T06:12:11.241Z,49.70
2017-03-20T06:13:10.318Z,49.40
2017-03-20T06:14:09.510Z,49.30
2017-03-20T06:15:08.833Z,49.00
2017-03-20T06:16:08.519Z,48.90
2017-03-20T06:17:07.608Z,48.80
2017-03-20T06:18:07.299Z,48.90
2017-03-20T06:19:06.602Z,49.20
2017-03-20T06:20:06.156Z,48.70
2017-03-20T06:21:05.273Z,48.80
2017-03-20T06:22:04.855Z,48.90
2017-03-20T06:23:04.274Z,49.10
2017-03-20T06:24:03.010Z,49.20
2017-03-20T06:25:01.997Z,48.90
2017-03-20T06:26:01.086Z,49.00
2017-03-20T06:27:00.314Z,49.10
2017-03-20T06:27:59.353Z,49.20
2017-03-20T06:28:58.246Z,49.30
2017-03-20T06:29:57.033Z,49.30
2017-03-20T06:30:55.987Z,49.30
2017-03-20T06:31:55.520Z,49.20
2017-03-20T06:32:55.314Z,49.30
2017-03-20T06:33:54.487Z,49.10
2017-03-20T06:34:53.751Z,49.20
2017-03-20T06:35:52.993Z,48.90
2017-03-20T06:36:52.392Z,48.80
2017-03-20T06:37:52.361Z,49.10
2017-03-20T06:38:52.086Z,48.80
2017-03-20T06:39:51.329Z,48.80
2017-03-20T06:40:50.015Z,48.70
2017-03-20T06:41:49.002Z,48.70
2017-03-20T06:42:47.791Z,48.70
2017-03-20T06:43:46.459Z,48.70
2017-03-20T06:44:45.794Z,48.70
2017-03-20T06:45:44.925Z,48.60
2017-03-20T06:46:44.276Z,48.60
2017-03-20T06:47:43.498Z,48.50
2017-03-20T06:48:42.751Z,48.60
2017-03-20T06:49:42.180Z,48.40
2017-03-20T06:50:40.930Z,48.50
2017-03-20T06:51:39.741Z,48.50
2017-03-20T06:52:39.037Z,48.40
2017-03-20T06:53:38.350Z,48.20
2017-03-20T06:54:37.321Z,48.30
2017-03-20T06:55:36.303Z,48.10
2017-03-20T06:56:35.625Z,48.20
2017-03-20T06:57:34.861Z,48.20
2017-03-20T06:58:33.652Z,48.10
2017-03-20T06:59:32.564Z,48.20
2017-03-20T07:00:31.810Z,48.00
2017-03-20T07:01:30.914Z,48.10
2017-03-20T07:02:30.076Z,48.10
2017-03-20T07:03:29.191Z,48.10
2017-03-20T07:04:28.078Z,47.90
2017-03-20T07:05:27.002Z,48.00
2017-03-20T07:06:26.036Z,47.90
2017-03-20T07:07:25.297Z,47.90
2017-03-20T07:08:24.403Z,47.90
2017-03-20T07:09:23.302Z,47.90
2017-03-20T07:10:22.372Z,48.00
2017-03-20T07:11:21.558Z,48.20
2017-03-20T07:12:20.825Z,48.20
2017-03-20T07:13:20.118Z,48.20
2017-03-20T07:14:19.231Z,48.10
2017-03-20T07:15:18.106Z,48.10
2017-03-20T07:16:17.061Z,48.10
2017-03-20T07:17:16.070Z,48.20
2017-03-20T07:18:15.024Z,48.10
2017-03-20T07:19:14.347Z,48.20
2017-03-20T07:20:13.676Z,48.00
2017-03-20T07:21:12.617Z,48.10
2017-03-20T07:22:11.681Z,48.10
2017-03-20T07:23:10.579Z,48.00
2017-03-20T07:24:09.843Z,48.20
2017-03-20T07:25:08.927Z,48.10
2017-03-20T07:26:08.118Z,48.10
2017-03-20T07:27:07.442Z,48.10
2017-03-20T07:28:06.934Z,48.10
2017-03-20T07:29:05.997Z,48.00
2017-03-20T07:30:05.211Z,48.00
2017-03-20T07:31:03.951Z,48.10
2017-03-20T07:32:03.149Z,48.10
2017-03-20T07:33:01.938Z,48.00
2017-03-20T07:34:00.725Z,48.00
2017-03-20T07:35:00.497Z,48.00
2017-03-20T07:36:58.177Z,48.00
2017-03-20T07:37:57.297Z,48.00
2017-03-20T07:38:56.240Z,48.10
2017-03-20T07:39:55.245Z,48.00
2017-03-20T07:40:54.106Z,48.00
2017-03-20T07:41:53.349Z,48.10
2017-03-20T07:42:51.494Z,48.10
2017-03-20T07:43:50.787Z,48.30
2017-03-20T07:44:49.890Z,48.20
2017-03-20T07:45:48.714Z,48.10
2017-03-20T07:46:47.977Z,48.40
2017-03-20T07:47:47.302Z,48.50
2017-03-20T07:48:46.279Z,48.50
2017-03-20T07:49:45.545Z,48.50
2017-03-20T07:50:44.834Z,48.50
2017-03-20T07:51:43.845Z,48.50
2017-03-20T07:52:42.910Z,48.00
2017-03-20T07:53:41.910Z,48.60
2017-03-20T07:54:40.881Z,48.30
2017-03-20T07:55:39.831Z,48.70
2017-03-20T07:56:39.038Z,48.90
2017-03-20T07:57:38.042Z,49.00
2017-03-20T07:58:37.027Z,49.00
2017-03-20T07:59:36.009Z,49.10
2017-03-20T08:00:35.306Z,49.10
2017-03-20T08:01:34.437Z,49.10
2017-03-20T08:02:40.534Z,49.20
2017-03-20T08:03:39.314Z,49.30
2017-03-20T08:04:38.293Z,49.30
2017-03-20T08:05:37.370Z,49.30
2017-03-20T08:06:36.084Z,49.40
2017-03-20T08:07:35.029Z,49.50
2017-03-20T08:08:34.225Z,49.50
2017-03-20T08:09:33.207Z,49.40
2017-03-20T08:10:32.286Z,49.30
2017-03-20T08:11:31.230Z,49.30
2017-03-20T08:12:31.832Z,49.40
2017-03-20T08:13:30.880Z,49.50
2017-03-20T08:14:29.658Z,49.60
2017-03-20T08:15:28.947Z,49.30
2017-03-20T08:16:28.021Z,49.30
2017-03-20T08:17:26.931Z,49.30
2017-03-20T08:18:26.179Z,49.30
2017-03-20T08:19:25.184Z,49.40
2017-03-20T08:20:24.443Z,49.50
2017-03-20T08:21:23.748Z,49.50
2017-03-20T08:22:22.743Z,49.00
2017-03-20T08:23:21.840Z,49.40
2017-03-20T08:24:20.750Z,49.60
2017-03-20T08:25:19.689Z,49.70
2017-03-20T08:26:18.754Z,49.80
2017-03-20T08:27:17.766Z,49.90
2017-03-20T08:28:16.665Z,49.80
2017-03-20T08:29:15.849Z,50.10
2017-03-20T08:30:16.102Z,50.00
2017-03-20T08:33:29.261Z,50.10
2017-03-20T08:34:39.498Z,50.10
2017-03-20T08:35:49.033Z,50.10
2017-03-20T08:36:56.877Z,49.80
2017-03-20T08:37:56.726Z,49.90
2017-03-20T08:38:56.041Z,50.00
2017-03-20T08:39:55.026Z,50.20
2017-03-20T08:40:54.079Z,49.70
2017-03-20T08:41:53.186Z,49.80
2017-03-20T08:42:52.166Z,49.70
2017-03-20T08:43:51.146Z,49.70
2017-03-20T08:44:50.110Z,50.20
2017-03-20T08:45:49.105Z,49.50
2017-03-20T08:46:48.218Z,49.60
2017-03-20T08:47:47.294Z,49.60
2017-03-20T08:48:47.285Z,49.00
2017-03-20T08:49:46.562Z,49.50
2017-03-20T08:50:45.842Z,48.80
2017-03-20T08:51:44.945Z,49.20
2017-03-20T08:52:44.426Z,49.10
2017-03-20T08:53:43.766Z,49.20
2017-03-20T08:54:42.722Z,48.70
2017-03-20T08:55:41.706Z,48.40
2017-03-20T08:56:40.689Z,48.40
2017-03-20T08:57:39.675Z,48.60
2017-03-20T08:58:39.010Z,48.60
2017-03-20T08:59:38.034Z,48.70
2017-03-20T09:00:37.229Z,48.70
2017-03-20T09:01:36.206Z,48.10
2017-03-20T09:02:35.752Z,48.10
2017-03-20T09:03:34.806Z,48.30
2017-03-20T09:04:33.914Z,48.30
2017-03-20T09:05:33.066Z,48.00
2017-03-20T09:06:32.051Z,48.00
2017-03-20T09:07:31.038Z,48.10
2017-03-20T09:08:30.023Z,48.00
2017-03-20T09:09:29.239Z,47.40
2017-03-20T09:10:28.126Z,47.70
2017-03-20T09:11:27.670Z,47.70
2017-03-20T09:12:26.846Z,47.30
2017-03-20T09:13:25.946Z,47.40
2017-03-20T09:14:24.922Z,47.40
2017-03-20T09:15:23.902Z,47.60
2017-03-20T09:16:22.636Z,47.60
2017-03-20T09:17:22.481Z,47.40
2017-03-20T09:18:21.579Z,47.60
2017-03-20T09:19:20.161Z,47.60
2017-03-20T09:20:19.116Z,47.70
2017-03-20T09:21:20.630Z,47.80
2017-03-20T09:22:19.594Z,48.00
2017-03-20T09:23:20.868Z,48.70
2017-03-20T09:24:20.806Z,48.20
2017-03-20T09:25:20.084Z,48.10
2017-03-20T09:26:19.071Z,48.00
2017-03-20T09:27:19.373Z,47.90
2017-03-20T09:53:04.223Z,57.10
2017-03-20T09:54:03.009Z,56.00
2017-03-20T09:55:03.093Z,55.70
2017-03-20T09:56:03.325Z,55.60
2017-03-20T09:57:01.897Z,54.80
2017-03-20T09:58:00.732Z,53.80
2017-03-20T09:59:00.501Z,55.00
2017-03-20T09:59:58.887Z,54.40
2017-03-20T10:00:58.003Z,55.90
2017-03-20T10:01:57.008Z,53.20
2017-03-20T10:02:56.326Z,52.10
2017-03-20T10:03:55.605Z,53.80
2017-03-20T10:04:54.878Z,52.60
2017-03-20T10:05:53.502Z,50.90
2017-03-20T10:06:52.040Z,51.30
2017-03-20T10:07:51.066Z,52.50
2017-03-20T10:08:49.622Z,52.10
2017-03-20T10:09:48.146Z,51.80
2017-03-20T10:10:46.701Z,51.40
2017-03-20T10:11:45.216Z,50.50
2017-03-20T10:12:43.744Z,50.60
2017-03-20T10:13:42.295Z,50.40
2017-03-20T10:14:40.863Z,49.90
2017-03-20T10:15:39.383Z,49.90
2017-03-20T10:16:37.921Z,50.00
2017-03-20T10:17:36.528Z,50.00
2017-03-20T10:18:35.062Z,49.70
2017-03-20T10:19:33.585Z,49.70
2017-03-20T10:20:33.606Z,49.70
2017-03-20T10:21:32.225Z,49.70
2017-03-20T10:22:30.813Z,49.60
2017-03-20T10:23:29.368Z,49.50
2017-03-20T10:24:27.941Z,49.70
2017-03-20T10:25:26.526Z,49.60
2017-03-20T10:26:25.278Z,49.50
2017-03-20T10:27:23.798Z,49.40
2017-03-20T10:28:22.355Z,49.50
2017-03-20T10:29:20.902Z,49.40
2017-03-20T10:30:19.455Z,49.30
2017-03-20T10:31:18.011Z,49.40
2017-03-20T10:32:16.551Z,49.30
2017-03-20T10:33:15.082Z,49.40
2017-03-20T10:34:13.602Z,49.40
2017-03-20T10:35:12.159Z,49.50
2017-03-20T10:36:10.683Z,49.80
2017-03-20T10:37:09.968Z,49.90
2017-03-20T10:38:08.501Z,49.80
2017-03-20T10:39:07.062Z,49.90
2017-03-20T10:40:05.605Z,50.00
2017-03-20T10:41:04.193Z,49.90
2017-03-20T10:42:02.750Z,50.10
2017-03-20T10:43:01.407Z,50.00
2017-03-20T10:43:59.953Z,50.00
2017-03-20T10:44:58.490Z,49.90
2017-03-20T10:45:57.024Z,49.80
2017-03-20T10:46:55.617Z,49.70
2017-03-20T10:47:55.094Z,49.60
2017-03-20T10:48:54.398Z,49.50
2017-03-20T10:49:52.958Z,49.70
2017-03-20T10:50:51.500Z,49.70
2017-03-20T10:51:50.033Z,49.70
2017-03-20T10:52:48.630Z,49.70
2017-03-20T10:53:47.219Z,49.90
2017-03-20T10:54:46.052Z,49.90
2017-03-20T10:55:45.038Z,50.00
2017-03-20T10:56:43.943Z,50.10
2017-03-20T10:57:43.038Z,50.10
2017-03-20T10:58:42.004Z,50.20
2017-03-20T10:59:41.016Z,50.30
2017-03-20T11:00:39.874Z,50.40
2017-03-20T11:01:40.924Z,50.50
2017-03-20T11:02:39.629Z,50.50
2017-03-20T11:03:38.689Z,50.60
2017-03-20T11:04:37.642Z,50.80
2017-03-20T11:05:36.616Z,50.80
2017-03-20T11:06:35.614Z,50.80
2017-03-20T11:07:34.595Z,51.00
2017-03-20T11:08:34.011Z,51.10
2017-03-20T11:09:33.202Z,51.20
2017-03-20T11:10:32.373Z,51.30
2017-03-20T11:11:31.368Z,51.40
2017-03-20T11:12:30.406Z,51.50
2017-03-20T11:13:29.417Z,51.60
2017-03-20T11:14:28.389Z,51.80
2017-03-20T11:15:27.658Z,51.90
2017-03-20T11:16:26.670Z,51.90
2017-03-20T11:17:26.356Z,52.00
2017-03-20T11:18:25.049Z,52.00
2017-03-20T11:19:23.927Z,52.20
2017-03-20T11:20:22.470Z,52.20
2017-03-20T11:21:21.609Z,52.20
2017-03-20T11:22:20.561Z,52.30
2017-03-20T11:23:19.850Z,52.40
2017-03-20T11:24:19.602Z,52.40
2017-03-20T11:25:18.738Z,52.50
2017-03-20T11:26:17.982Z,52.50
2017-03-20T11:27:17.062Z,52.30
2017-03-20T11:28:16.086Z,52.70
2017-03-20T11:29:15.070Z,52.70
2017-03-20T11:30:14.162Z,52.70
2017-03-20T11:31:12.941Z,52.70
2017-03-20T11:32:12.134Z,52.80
2017-03-20T11:33:11.031Z,52.80
2017-03-20T11:34:10.177Z,52.90
2017-03-20T11:35:09.274Z,52.80
2017-03-20T11:36:07.967Z,52.90
2017-03-20T11:37:06.959Z,52.90
2017-03-20T11:38:06.103Z,52.90
2017-03-20T11:39:05.149Z,52.90
2017-03-20T11:40:04.091Z,52.80
2017-03-20T11:41:03.079Z,52.90
2017-03-20T11:42:02.058Z,52.90
2017-03-20T11:43:00.637Z,52.80
2017-03-20T11:44:03.761Z,52.80
2017-03-20T11:45:02.601Z,52.70
2017-03-20T11:46:01.146Z,52.80
2017-03-20T11:46:59.684Z,52.90
2017-03-20T11:47:58.217Z,52.90
2017-03-20T11:48:56.963Z,52.90
2017-03-20T11:49:55.969Z,53.00
2017-03-20T11:50:55.085Z,53.20
2017-03-20T11:51:54.232Z,53.30
2017-03-20T11:52:53.218Z,53.30
2017-03-20T11:53:52.289Z,53.30
2017-03-20T11:54:51.277Z,53.30
2017-03-20T11:55:50.166Z,53.40
2017-03-20T11:56:49.188Z,53.30
2017-03-20T11:57:48.245Z,53.50
2017-03-20T11:58:47.386Z,53.30
2017-03-20T11:59:46.211Z,53.40
2017-03-20T12:00:44.878Z,53.40
2017-03-20T12:01:44.077Z,53.50
2017-03-20T12:02:43.385Z,53.40
2017-03-20T12:03:42.645Z,53.50
2017-03-20T12:04:41.933Z,53.60
2017-03-20T12:05:40.922Z,53.50
2017-03-20T12:06:39.893Z,53.60
2017-03-20T12:07:39.190Z,53.60
2017-03-20T12:08:38.206Z,53.70
2017-03-20T12:09:37.154Z,53.80
2017-03-20T12:10:36.423Z,53.90
2017-03-20T12:11:35.427Z,53.90
2017-03-20T12:12:34.251Z,53.80
2017-03-20T12:13:33.370Z,53.80
2017-03-20T12:14:32.713Z,53.90
2017-03-20T12:15:31.668Z,54.00
2017-03-20T12:16:30.703Z,54.00
2017-03-20T12:17:29.942Z,54.00
2017-03-20T12:18:28.917Z,54.00
2017-03-20T12:19:28.216Z,54.00
2017-03-20T12:20:27.567Z,54.20
2017-03-20T12:21:26.483Z,54.20
2017-03-20T12:22:26.186Z,54.10
2017-03-20T12:23:25.162Z,54.20
2017-03-20T12:24:24.151Z,54.20
2017-03-20T12:25:23.091Z,54.20
2017-03-20T12:26:22.135Z,54.10
2017-03-20T12:27:21.076Z,54.30
2017-03-20T12:28:20.302Z,54.20
2017-03-20T12:29:19.078Z,54.10
2017-03-20T12:30:17.945Z,54.10
2017-03-20T12:31:16.877Z,54.20
2017-03-20T12:32:15.937Z,54.10
2017-03-20T12:33:15.199Z,54.10
2017-03-20T12:34:14.186Z,54.10
2017-03-20T12:35:13.165Z,54.20
2017-03-20T12:36:12.149Z,54.10
2017-03-20T12:37:11.131Z,54.10
2017-03-20T12:38:10.143Z,54.10
2017-03-20T12:39:09.399Z,54.10
2017-03-20T12:40:08.385Z,54.20
2017-03-20T12:41:07.358Z,54.10
2017-03-20T12:42:06.622Z,54.10
2017-03-20T12:43:05.918Z,54.20
2017-03-20T12:44:04.925Z,54.20
2017-03-20T12:45:03.905Z,54.20
2017-03-20T12:46:03.185Z,54.20
2017-03-20T18:39:47.104Z,49.00
2017-03-20T18:40:45.379Z,48.80
2017-03-20T18:41:43.774Z,48.70
2017-03-20T18:42:42.238Z,48.60
2017-03-20T18:43:40.730Z,48.60
2017-03-20T18:44:39.010Z,48.50
2017-03-20T18:45:37.386Z,48.40
2017-03-20T18:46:35.735Z,48.30
2017-03-20T18:47:34.425Z,48.50
2017-03-20T18:48:32.885Z,48.50
2017-03-20T18:49:31.200Z,48.50
2017-03-20T18:50:29.563Z,48.50
2017-03-20T18:51:29.057Z,48.40
2017-03-20T18:52:27.441Z,48.40
2017-03-20T18:53:25.847Z,48.50
2017-03-20T18:54:24.108Z,48.50
2017-03-20T18:55:22.363Z,48.50
2017-03-20T18:56:20.633Z,48.50
2017-03-20T18:57:18.908Z,48.50
2017-03-20T18:58:17.479Z,48.50
2017-03-20T18:59:15.900Z,48.50
2017-03-20T19:00:15.249Z,48.50
2017-03-20T19:01:13.711Z,48.50
2017-03-20T19:02:11.989Z,48.50